createdAt,value
2022-09-28T00:01:07.877Z,23.45
2022-09-28T00:03:36.236Z,23.44
2022-09-28T00:06:05.182Z,23.42
2022-09-28T00:08:33.533Z,23.42
2022-09-28T00:11:01.738Z,23.43
2022-09-28T00:13:31.826Z,23.45
2022-09-28T00:16:01.371Z,23.45
2022-09-28T00:18:29.716Z,23.45
2022-09-28T00:21:02.245Z,23.44
2022-09-28T00:23:30.419Z,23.44
2022-09-28T00:26:02.581Z,23.44
2022-09-28T00:28:32.347Z,23.44
2022-09-28T00:31:01.347Z,23.45
2022-09-28T00:33:29.823Z,23.43
2022-09-28T00:35:58.501Z,23.43
2022-09-28T00:38:29.702Z,23.41
2022-09-28T00:40:59.661Z,23.42
2022-09-28T00:43:28.220Z,23.41
2022-09-28T00:46:00.472Z,23.41
2022-09-28T00:48:30.114Z,23.41
2022-09-28T00:50:58.258Z,23.41
2022-09-28T00:53:27.326Z,23.41
2022-09-28T00:55:56.200Z,23.39
2022-09-28T00:58:25.358Z,23.39
2022-09-28T01:00:53.564Z,23.39
2022-09-28T01:03:23.513Z,23.39
2022-09-28T01:05:51.802Z,23.37
2022-09-28T01:08:21.256Z,23.36
2022-09-28T01:10:49.974Z,23.37
2022-09-28T01:13:21.402Z,23.36
2022-09-28T01:15:53.067Z,23.35
2022-09-28T01:18:26.697Z,23.35
2022-09-28T01:21:02.359Z,23.35
2022-09-28T01:23:54.447Z,23.36
2022-09-28T01:26:47.929Z,23.35
2022-09-28T01:29:20.418Z,23.35
2022-09-28T01:31:52.413Z,23.34
2022-09-28T01:34:25.906Z,23.34
2022-09-28T01:36:55.467Z,23.35
2022-09-28T01:39:25.972Z,23.34
2022-09-28T01:41:56.058Z,23.34
2022-09-28T01:44:26.137Z,23.34
2022-09-28T01:46:55.533Z,23.34
2022-09-28T01:49:25.599Z,23.33
2022-09-28T01:51:55.583Z,23.33
2022-09-28T01:54:27.253Z,23.31
2022-09-28T01:56:59.162Z,23.31
2022-09-28T01:59:28.632Z,23.31
2022-09-28T02:01:59.750Z,23.33
2022-09-28T02:04:29.770Z,23.31
2022-09-28T02:06:59.042Z,23.31
2022-09-28T02:09:33.700Z,23.32
2022-09-28T02:12:06.403Z,23.32
2022-09-28T02:14:35.026Z,23.31
2022-09-28T02:17:03.526Z,23.29
2022-09-28T02:19:32.979Z,23.28
2022-09-28T02:22:03.671Z,23.29
2022-09-28T02:24:37.070Z,23.29
2022-09-28T02:27:10.517Z,23.29
2022-09-28T02:29:38.905Z,23.28
2022-09-28T02:32:07.322Z,23.27
2022-09-28T02:34:36.255Z,23.27
2022-09-28T02:37:04.493Z,23.28
2022-09-28T02:39:32.914Z,23.26
2022-09-28T02:42:07.045Z,23.27
2022-09-28T02:44:46.146Z,23.27
2022-09-28T02:47:23.165Z,23.27
2022-09-28T02:49:52.721Z,23.28
2022-09-28T02:52:39.198Z,23.27
2022-09-28T02:55:18.765Z,23.27
2022-09-28T02:57:55.607Z,23.25
2022-09-28T03:00:25.583Z,23.26
2022-09-28T03:03:01.606Z,23.25
2022-09-28T03:05:34.410Z,23.24
2022-09-28T03:08:03.462Z,23.24
2022-09-28T03:10:36.701Z,23.24
2022-09-28T03:13:05.215Z,23.26
2022-09-28T03:15:36.301Z,23.24
2022-09-28T03:18:05.213Z,23.23
2022-09-28T03:20:33.964Z,23.23
2022-09-28T03:25:51.411Z,23.23
2022-09-28T03:28:21.398Z,23.24
2022-09-28T03:30:51.500Z,23.23
2022-09-28T03:33:20.161Z,23.23
2022-09-28T03:35:49.213Z,23.23
2022-09-28T03:38:18.327Z,23.22
2022-09-28T03:40:54.187Z,23.23
2022-09-28T03:43:22.595Z,23.21
2022-09-28T03:45:56.476Z,23.22
2022-09-28T03:48:29.872Z,23.21
2022-09-28T03:51:01.430Z,23.23
2022-09-28T03:53:30.171Z,23.21
2022-09-28T03:56:03.642Z,23.23
2022-09-28T03:58:32.583Z,23.21
2022-09-28T04:01:04.725Z,23.20
2022-09-28T04:03:33.013Z,23.19
2022-09-28T04:06:01.298Z,23.19
2022-09-28T04:08:29.669Z,23.19
2022-09-28T04:10:58.684Z,23.17
2022-09-28T04:13:28.209Z,23.17
2022-09-28T04:15:57.364Z,23.17
2022-09-28T04:18:28.258Z,23.18
2022-09-28T04:21:12.958Z,23.17
2022-09-28T04:23:47.163Z,23.18
2022-09-28T04:26:17.844Z,23.18
2022-09-28T04:29:06.557Z,23.17
2022-09-28T04:31:38.982Z,23.19
2022-09-28T04:34:08.732Z,23.19
2022-09-28T04:36:37.220Z,23.21
2022-09-28T04:39:05.479Z,23.19
2022-09-28T04:41:34.350Z,23.20
2022-09-28T04:44:03.147Z,23.19
2022-09-28T04:46:31.855Z,23.20
2022-09-28T04:49:20.259Z,23.20
2022-09-28T04:51:56.571Z,23.20
2022-09-28T04:54:24.790Z,23.22
2022-09-28T04:56:53.459Z,23.22
2022-09-28T04:59:21.814Z,23.20
2022-09-28T05:01:50.440Z,23.21
2022-09-28T05:04:39.002Z,23.21
2022-09-28T05:07:27.618Z,23.22
2022-09-28T05:09:56.662Z,23.23
2022-09-28T05:12:24.835Z,23.23
2022-09-28T05:14:53.275Z,23.23
2022-09-28T05:17:21.583Z,23.24
2022-09-28T05:19:51.252Z,23.23
2022-09-28T05:22:19.514Z,23.24
2022-09-28T05:24:48.054Z,23.25
2022-09-28T05:27:16.585Z,23.26
2022-09-28T05:29:48.015Z,23.27
2022-09-28T05:32:34.458Z,23.26
2022-09-28T05:35:26.910Z,23.27
2022-09-28T05:37:56.218Z,23.30
2022-09-28T05:40:24.640Z,23.30
2022-09-28T05:42:52.953Z,23.31
2022-09-28T05:45:21.202Z,23.33
2022-09-28T05:47:49.535Z,23.37
2022-09-28T05:50:20.479Z,23.37
2022-09-28T05:52:58.623Z,23.38
2022-09-28T05:55:27.177Z,23.42
2022-09-28T05:57:55.323Z,23.41
2022-09-28T06:00:23.719Z,23.44
2022-09-28T06:03:00.046Z,23.44
2022-09-28T06:05:29.480Z,23.46
2022-09-28T06:07:59.231Z,23.46
2022-09-28T06:10:28.016Z,23.47
2022-09-28T06:13:00.483Z,23.49
2022-09-28T06:15:29.515Z,23.52
2022-09-28T06:17:59.789Z,23.53
2022-09-28T06:20:38.777Z,23.53
2022-09-28T06:23:15.958Z,23.55
2022-09-28T06:25:44.875Z,23.53
2022-09-28T06:28:13.929Z,23.54
2022-09-28T06:30:42.323Z,23.54
2022-09-28T06:33:14.149Z,23.54
2022-09-28T06:35:42.600Z,23.54
2022-09-28T06:38:11.032Z,23.55
2022-09-28T06:40:40.829Z,23.55
2022-09-28T06:43:11.367Z,23.55
2022-09-28T06:45:58.030Z,23.58
2022-09-28T06:48:33.638Z,23.57
2022-09-28T06:51:02.633Z,23.57
2022-09-28T06:53:54.091Z,23.55
2022-09-28T06:56:43.707Z,23.56
2022-09-28T06:59:12.113Z,23.57
2022-09-28T07:01:40.463Z,23.55
2022-09-28T07:04:21.768Z,23.56
2022-09-28T07:07:16.315Z,23.58
2022-09-28T07:10:03.318Z,23.58
2022-09-28T07:12:59.441Z,23.57
2022-09-28T07:15:37.994Z,23.59
2022-09-28T07:18:07.087Z,23.59
2022-09-28T07:20:45.140Z,23.60
2022-09-28T07:23:20.953Z,23.60
2022-09-28T07:26:27.246Z,23.60
2022-09-28T07:29:15.218Z,23.58
2022-09-28T07:31:56.687Z,23.58
2022-09-28T07:35:00.392Z,23.58
2022-09-28T07:37:38.369Z,23.58
2022-09-28T07:40:25.687Z,23.58
2022-09-28T07:42:54.246Z,23.59
2022-09-28T07:45:24.637Z,23.59
2022-09-28T07:47:56.079Z,23.58
2022-09-28T07:50:51.886Z,23.59
2022-09-28T07:53:34.483Z,23.59
2022-09-28T07:56:28.491Z,23.60
2022-09-28T07:59:26.454Z,23.59
2022-09-28T08:02:14.805Z,23.58
2022-09-28T08:04:43.465Z,23.58
2022-09-28T08:07:11.955Z,23.58
2022-09-28T08:09:41.603Z,23.61
2022-09-28T08:12:19.782Z,23.60
2022-09-28T08:15:00.266Z,23.59
2022-09-28T08:17:41.847Z,23.61
2022-09-28T08:20:28.177Z,23.61
2022-09-28T08:22:56.926Z,23.62
2022-09-28T08:25:25.651Z,23.61
2022-09-28T08:27:53.968Z,23.62
2022-09-28T08:30:23.184Z,23.62
2022-09-28T08:33:13.673Z,23.62
2022-09-28T08:35:44.764Z,23.61
2022-09-28T08:38:29.558Z,23.62
2022-09-28T08:41:20.155Z,23.62
2022-09-28T08:44:17.359Z,23.62
2022-09-28T08:47:05.535Z,23.61
2022-09-28T08:49:46.279Z,23.61
2022-09-28T08:52:39.311Z,23.60
2022-09-28T08:55:38.186Z,23.61
2022-09-28T08:58:11.930Z,23.61
2022-09-28T09:00:42.419Z,23.61
2022-09-28T09:03:11.937Z,23.61
2022-09-28T09:05:48.499Z,23.61
2022-09-28T09:08:28.875Z,23.62
2022-09-28T09:10:59.538Z,23.64
2022-09-28T09:13:50.949Z,23.66
2022-09-28T09:16:29.717Z,23.65
2022-09-28T09:19:36.533Z,23.66
2022-09-28T09:22:35.457Z,23.66
2022-09-28T09:25:08.221Z,23.66
2022-09-28T09:27:43.978Z,23.64
2022-09-28T09:30:13.708Z,23.59
2022-09-28T09:33:06.496Z,23.59
2022-09-28T09:35:52.361Z,23.61
2022-09-28T09:39:04.402Z,23.63
2022-09-28T09:42:00.158Z,23.65
2022-09-28T09:44:56.713Z,23.67
2022-09-28T09:47:44.710Z,23.69
2022-09-28T09:50:30.135Z,23.70
2022-09-28T09:53:02.029Z,23.71
2022-09-28T09:55:33.195Z,23.72
2022-09-28T09:58:19.591Z,23.75
2022-09-28T10:00:54.046Z,23.79
2022-09-28T10:03:44.190Z,23.81
2022-09-28T10:06:18.084Z,23.84
2022-09-28T10:08:49.547Z,23.88
2022-09-28T10:11:22.845Z,23.93
2022-09-28T10:13:55.419Z,23.95
2022-09-28T10:16:43.204Z,23.97
2022-09-28T10:19:17.992Z,23.99
2022-09-28T10:22:06.732Z,23.99
2022-09-28T10:24:37.289Z,24.00
2022-09-28T10:27:08.742Z,23.99
2022-09-28T10:29:41.999Z,24.00
2022-09-28T10:32:19.606Z,24.00
2022-09-28T10:34:50.827Z,23.99
2022-09-28T10:37:22.518Z,23.99
2022-09-28T10:40:33.363Z,23.99
2022-09-28T10:43:04.349Z,23.99
2022-09-28T10:45:36.113Z,23.99
2022-09-28T10:48:06.623Z,23.99
2022-09-28T10:50:35.711Z,24.00
2022-09-28T10:53:19.569Z,24.00
2022-09-28T10:56:20.872Z,23.97
2022-09-28T10:58:53.810Z,23.97
2022-09-28T11:01:34.614Z,23.95
2022-09-28T11:04:06.286Z,23.96
2022-09-28T11:06:37.990Z,23.96
2022-09-28T11:09:08.694Z,23.96
2022-09-28T11:11:41.527Z,23.96
2022-09-28T11:14:23.530Z,23.96
2022-09-28T11:16:53.886Z,23.96
2022-09-28T11:19:29.014Z,23.97
2022-09-28T11:21:57.454Z,23.98
2022-09-28T11:24:34.811Z,23.97
2022-09-28T11:27:05.727Z,23.97
2022-09-28T11:29:38.761Z,23.96
2022-09-28T11:32:22.357Z,23.96
2022-09-28T11:35:32.262Z,23.97
2022-09-28T11:38:07.487Z,23.99
2022-09-28T11:41:12.262Z,23.99
2022-09-28T11:43:52.593Z,23.99
2022-09-28T11:46:27.351Z,23.98
2022-09-28T11:48:59.752Z,23.99
2022-09-28T11:51:28.723Z,23.98
2022-09-28T11:53:58.251Z,23.99
2022-09-28T11:56:32.609Z,23.98
2022-09-28T11:59:04.087Z,24.00
2022-09-28T12:01:45.151Z,24.01
2022-09-28T12:04:21.316Z,24.01
2022-09-28T12:06:52.703Z,24.01
2022-09-28T12:09:27.002Z,24.00
2022-09-28T12:12:04.477Z,24.01
2022-09-28T12:14:43.703Z,24.02
2022-09-28T12:17:20.223Z,24.01
2022-09-28T12:19:49.836Z,23.98
2022-09-28T12:22:19.787Z,23.96
2022-09-28T12:24:49.581Z,23.94
2022-09-28T12:27:20.383Z,23.92
2022-09-28T12:29:51.892Z,23.93
2022-09-28T12:32:27.383Z,23.93
2022-09-28T12:34:56.038Z,23.91
2022-09-28T12:37:33.336Z,23.90
2022-09-28T12:40:29.574Z,23.84
2022-09-28T12:43:05.570Z,23.77
2022-09-28T12:45:59.772Z,23.78
2022-09-28T12:49:33.165Z,23.84
2022-09-28T12:51:48.039Z,23.85
2022-09-28T12:54:33.057Z,23.87
2022-09-28T12:57:06.607Z,23.88
2022-09-28T12:59:36.963Z,23.89
2022-09-28T13:02:24.925Z,23.89
2022-09-28T13:05:01.668Z,23.90
2022-09-28T13:07:32.177Z,23.90
2022-09-28T13:10:05.695Z,23.91
2022-09-28T13:12:40.938Z,23.91
2022-09-28T13:15:24.864Z,23.92
2022-09-28T13:18:00.506Z,23.89
2022-09-28T13:20:39.575Z,23.81
2022-09-28T13:23:17.032Z,23.75
2022-09-28T13:25:47.814Z,23.72
2022-09-28T13:28:16.777Z,23.74
2022-09-28T13:30:45.344Z,23.75
2022-09-28T13:33:18.533Z,23.77
2022-09-28T13:35:48.169Z,23.77
2022-09-28T13:38:49.840Z,23.75
2022-09-28T13:41:23.480Z,23.74
2022-09-28T13:44:35.184Z,23.74
2022-09-28T13:47:13.222Z,23.73
2022-09-28T13:49:50.095Z,23.73
2022-09-28T13:52:32.242Z,23.73
2022-09-28T13:55:09.616Z,23.73
2022-09-28T13:57:42.182Z,23.73
2022-09-28T14:00:18.806Z,23.70
2022-09-28T14:02:48.514Z,23.70
2022-09-28T14:05:49.367Z,23.69
2022-09-28T14:08:35.176Z,23.67
2022-09-28T14:11:45.250Z,23.67
2022-09-28T14:14:30.511Z,23.64
2022-09-28T14:17:52.042Z,23.64
2022-09-28T14:20:20.763Z,23.61
2022-09-28T14:23:14.906Z,23.61
2022-09-28T14:25:46.298Z,23.64
2022-09-28T14:28:31.903Z,23.65
2022-09-28T14:31:00.940Z,23.67
2022-09-28T14:33:29.627Z,23.71
2022-09-28T14:35:58.963Z,23.70
2022-09-28T14:38:47.076Z,23.71
2022-09-28T14:41:29.847Z,23.71
2022-09-28T14:44:05.734Z,23.72
2022-09-28T14:46:36.174Z,23.73
2022-09-28T14:49:05.714Z,23.71
2022-09-28T14:52:04.717Z,23.71
2022-09-28T14:54:46.651Z,23.72
2022-09-28T14:57:30.213Z,23.73
2022-09-28T14:59:59.591Z,23.75
2022-09-28T15:02:30.506Z,23.75
2022-09-28T15:05:01.151Z,23.75
2022-09-28T15:07:33.002Z,23.75
2022-09-28T15:10:02.274Z,23.73
2022-09-28T15:12:31.918Z,23.70
2022-09-28T15:15:02.394Z,23.72
2022-09-28T15:17:34.616Z,23.73
2022-09-28T15:20:23.417Z,23.74
2022-09-28T15:22:52.942Z,23.73
2022-09-28T15:25:22.508Z,23.74
2022-09-28T15:27:54.269Z,23.73
2022-09-28T15:30:27.625Z,23.74
2022-09-28T15:32:57.055Z,23.73
2022-09-28T15:35:26.330Z,23.75
2022-09-28T15:37:55.709Z,23.74
2022-09-28T15:40:31.669Z,23.74
2022-09-28T15:43:02.611Z,23.75
2022-09-28T15:45:33.174Z,23.75
2022-09-28T15:48:19.360Z,23.77
2022-09-28T15:51:01.518Z,23.75
2022-09-28T15:53:31.615Z,23.74
2022-09-28T15:56:10.005Z,23.74
2022-09-28T15:58:40.073Z,23.72
2022-09-28T16:01:27.270Z,23.73
2022-09-28T16:03:55.608Z,23.74
2022-09-28T16:06:24.400Z,23.72
2022-09-28T16:08:52.584Z,23.69
2022-09-28T16:11:21.631Z,23.64
2022-09-28T16:13:56.982Z,23.63
2022-09-28T16:16:27.798Z,23.66
2022-09-28T16:18:56.031Z,23.67
2022-09-28T16:21:33.942Z,23.70
2022-09-28T16:24:02.397Z,23.69
2022-09-28T16:26:32.619Z,23.69
2022-09-28T16:29:02.297Z,23.70
2022-09-28T16:31:34.582Z,23.70
2022-09-28T16:34:11.646Z,23.71
2022-09-28T16:36:42.817Z,23.72
2022-09-28T16:39:11.764Z,23.71
2022-09-28T16:41:40.533Z,23.68
2022-09-28T16:44:15.444Z,23.64
2022-09-28T16:46:44.437Z,23.64
2022-09-28T16:49:18.778Z,23.67
2022-09-28T16:51:47.993Z,23.67
2022-09-28T16:54:35.373Z,23.67
2022-09-28T16:57:03.615Z,23.67
2022-09-28T16:59:33.379Z,23.67
2022-09-28T17:02:01.772Z,23.66
2022-09-28T17:04:29.953Z,23.67
2022-09-28T17:06:58.484Z,23.69
2022-09-28T17:09:26.684Z,23.67
2022-09-28T17:11:56.192Z,23.68
2022-09-28T17:14:25.059Z,23.67
2022-09-28T17:17:08.147Z,23.68
2022-09-28T17:19:37.883Z,23.66
2022-09-28T17:22:08.229Z,23.66
2022-09-28T17:24:36.449Z,23.67
2022-09-28T17:27:07.019Z,23.67
2022-09-28T17:29:35.470Z,23.67
2022-09-28T17:32:10.246Z,23.65
2022-09-28T17:34:38.440Z,23.67
2022-09-28T17:37:06.955Z,23.69
2022-09-28T17:39:35.458Z,23.68
2022-09-28T17:42:05.433Z,23.68
2022-09-28T17:44:35.520Z,23.69
2022-09-28T17:47:05.299Z,23.71
2022-09-28T17:49:36.202Z,23.70
2022-09-28T17:52:05.632Z,23.69
2022-09-28T17:54:33.889Z,23.70
2022-09-28T17:57:02.101Z,23.69
2022-09-28T17:59:31.444Z,23.71
2022-09-28T18:02:02.351Z,23.69
2022-09-28T18:04:51.267Z,23.69
2022-09-28T18:07:20.863Z,23.70
2022-09-28T18:09:49.259Z,23.70
2022-09-28T18:12:17.531Z,23.70
2022-09-28T18:14:47.257Z,23.69
2022-09-28T18:17:15.475Z,23.70
2022-09-28T18:19:45.275Z,23.71
2022-09-28T18:22:13.471Z,23.69
2022-09-28T18:24:42.022Z,23.70
2022-09-28T18:27:10.243Z,23.70
2022-09-28T18:29:38.424Z,23.70
2022-09-28T18:32:06.698Z,23.70
2022-09-28T18:34:37.178Z,23.71
2022-09-28T18:37:07.180Z,23.72
2022-09-28T18:39:36.362Z,23.71
2022-09-28T18:42:04.897Z,23.71
2022-09-28T18:44:33.147Z,23.72
2022-09-28T18:47:02.778Z,23.73
2022-09-28T18:49:31.638Z,23.75
2022-09-28T18:51:59.890Z,23.75
2022-09-28T18:54:29.486Z,23.74
2022-09-28T18:56:57.807Z,23.72
2022-09-28T18:59:26.067Z,23.70
2022-09-28T19:01:54.441Z,23.68
2022-09-28T19:04:22.970Z,23.67
2022-09-28T19:06:52.561Z,23.66
2022-09-28T19:09:21.922Z,23.65
2022-09-28T19:11:51.870Z,23.64
2022-09-28T19:14:20.290Z,23.63
2022-09-28T19:16:48.595Z,23.63
2022-09-28T19:19:17.802Z,23.62
2022-09-28T19:21:46.532Z,23.61
2022-09-28T19:24:15.123Z,23.60
2022-09-28T19:26:43.798Z,23.61
2022-09-28T19:29:13.468Z,23.59
2022-09-28T19:31:43.315Z,23.58
2022-09-28T19:34:13.528Z,23.58
2022-09-28T19:36:43.045Z,23.57
2022-09-28T19:39:13.795Z,23.56
2022-09-28T19:41:51.408Z,23.56
2022-09-28T19:44:35.890Z,23.54
2022-09-28T19:47:07.113Z,23.55
2022-09-28T19:49:36.858Z,23.53
2022-09-28T19:52:13.482Z,23.54
2022-09-28T19:54:43.982Z,23.52
2022-09-28T19:57:13.580Z,23.52
2022-09-28T19:59:43.262Z,23.52
2022-09-28T20:02:11.657Z,23.52
2022-09-28T20:04:39.871Z,23.51
2022-09-28T20:07:08.118Z,23.51
2022-09-28T20:09:36.392Z,23.51
2022-09-28T20:12:04.890Z,23.50
2022-09-28T20:14:38.006Z,23.50
2022-09-28T20:17:10.795Z,23.49
2022-09-28T20:19:39.302Z,23.49
2022-09-28T20:22:07.562Z,23.49
2022-09-28T20:24:36.018Z,23.47
2022-09-28T20:27:04.251Z,23.48
2022-09-28T20:29:33.595Z,23.46
2022-09-28T20:32:04.111Z,23.47
2022-09-28T20:34:34.589Z,23.46
2022-09-28T20:37:02.850Z,23.45
2022-09-28T20:39:31.070Z,23.44
2022-09-28T20:41:59.255Z,23.43
2022-09-28T20:44:27.575Z,23.42
2022-09-28T20:46:56.882Z,23.42
2022-09-28T20:49:26.377Z,23.41
2022-09-28T20:51:56.198Z,23.41
2022-09-28T20:54:24.439Z,23.40
2022-09-28T20:56:52.753Z,23.39
2022-09-28T20:59:23.000Z,23.39
2022-09-28T21:01:51.348Z,23.39
2022-09-28T21:04:20.160Z,23.38
2022-09-28T21:06:49.026Z,23.36
2022-09-28T21:09:18.743Z,23.36
2022-09-28T21:11:48.222Z,23.35
2022-09-28T21:14:16.897Z,23.36
2022-09-28T21:16:45.214Z,23.35
2022-09-28T21:19:13.622Z,23.35
2022-09-28T21:21:41.853Z,23.34
2022-09-28T21:24:10.317Z,23.34
2022-09-28T21:26:40.187Z,23.33
2022-09-28T21:29:09.251Z,23.32
2022-09-28T21:31:39.387Z,23.32
2022-09-28T21:34:07.718Z,23.31
2022-09-28T21:36:36.329Z,23.31
2022-09-28T21:39:09.547Z,23.31
2022-09-28T21:41:40.054Z,23.30
2022-09-28T21:44:08.350Z,23.29
2022-09-28T21:46:36.889Z,23.29
2022-09-28T21:49:06.387Z,23.29
2022-09-28T21:51:34.679Z,23.28
2022-09-28T21:54:03.008Z,23.28
2022-09-28T21:56:31.273Z,23.27
2022-09-28T21:59:01.422Z,23.26
2022-09-28T22:01:29.802Z,23.26
2022-09-28T22:03:58.177Z,23.24
2022-09-28T22:06:28.404Z,23.25
2022-09-28T22:08:56.802Z,23.25
2022-09-28T22:11:25.662Z,23.24
2022-09-28T22:13:54.719Z,23.23
2022-09-28T22:16:25.925Z,23.23
2022-09-28T22:18:54.227Z,23.22
2022-09-28T22:21:23.641Z,23.22
2022-09-28T22:23:52.046Z,23.21
2022-09-28T22:26:21.678Z,23.21
2022-09-28T22:28:50.701Z,23.19
2022-09-28T22:31:19.874Z,23.19
2022-09-28T22:33:50.067Z,23.18
2022-09-28T22:36:18.955Z,23.17
2022-09-28T22:38:47.365Z,23.18
2022-09-28T22:41:15.982Z,23.17
2022-09-28T22:43:44.404Z,23.16
2022-09-28T22:46:13.701Z,23.16
2022-09-28T22:48:42.445Z,23.16
2022-09-28T22:51:12.115Z,23.15
2022-09-28T22:53:40.415Z,23.14
2022-09-28T22:56:09.009Z,23.14
2022-09-28T22:58:37.577Z,23.13
2022-09-28T23:01:09.647Z,23.13
2022-09-28T23:03:40.185Z,23.13
2022-09-28T23:06:08.543Z,23.11
2022-09-28T23:08:38.275Z,23.10
2022-09-28T23:11:06.928Z,23.12
2022-09-28T23:13:35.285Z,23.10
2022-09-28T23:16:04.547Z,23.11
2022-09-28T23:18:33.656Z,23.10
2022-09-28T23:21:03.148Z,23.10
2022-09-28T23:23:31.633Z,23.09
2022-09-28T23:26:01.575Z,23.11
2022-09-28T23:28:30.342Z,23.10
2022-09-28T23:30:58.625Z,23.08
2022-09-28T23:33:26.869Z,23.10
2022-09-28T23:35:55.199Z,23.09
2022-09-28T23:38:23.533Z,23.08
2022-09-28T23:40:51.861Z,23.08
2022-09-28T23:43:21.546Z,23.09
2022-09-28T23:45:49.836Z,23.08
2022-09-28T23:48:18.372Z,23.08
2022-09-28T23:50:46.604Z,23.07
2022-09-28T23:53:15.201Z,23.08
2022-09-28T23:55:43.970Z,23.07
2022-09-28T23:58:12.844Z,23.06
